sensor_id;sensor_type;location;lat;lon;timestamp;temperature;humidity
21770;DHT22;11046;49.558;8.674;2023-04-05T00:02:07;2.70;62.80
21770;DHT22;11046;49.558;8.674;2023-04-05T00:05:10;2.70;63.00
21770;DHT22;11046;49.558;8.674;2023-04-05T00:08:11;2.60;63.10
21770;DHT22;11046;49.558;8.674;2023-04-05T00:11:22;2.40;63.30
21770;DHT22;11046;49.558;8.674;2023-04-05T00:14:23;2.40;63.70
21770;DHT22;11046;49.558;8.674;2023-04-05T00:17:23;2.40;63.90
21770;DHT22;11046;49.558;8.674;2023-04-05T00:20:25;2.30;64.10
21770;DHT22;11046;49.558;8.674;2023-04-05T00:23:25;2.10;64.50
21770;DHT22;11046;49.558;8.674;2023-04-05T00:26:26;2.20;64.60
21770;DHT22;11046;49.558;8.674;2023-04-05T00:29:30;2.10;64.60
21770;DHT22;11046;49.558;8.674;2023-04-05T00:32:31;2.10;65.00
21770;DHT22;11046;49.558;8.674;2023-04-05T00:35:32;2.10;65.00
21770;DHT22;11046;49.558;8.674;2023-04-05T00:38:33;2.10;65.00
21770;DHT22;11046;49.558;8.674;2023-04-05T00:41:33;2.00;65.10
21770;DHT22;11046;49.558;8.674;2023-04-05T00:44:35;1.90;65.20
21770;DHT22;11046;49.558;8.674;2023-04-05T00:47:36;1.90;65.60
21770;DHT22;11046;49.558;8.674;2023-04-05T00:50:38;1.90;65.70
21770;DHT22;11046;49.558;8.674;2023-04-05T00:53:40;1.80;65.80
21770;DHT22;11046;49.558;8.674;2023-04-05T00:56:42;1.70;66.00
21770;DHT22;11046;49.558;8.674;2023-04-05T00:59:43;1.60;66.40
21770;DHT22;11046;49.558;8.674;2023-04-05T01:02:48;1.60;66.60
21770;DHT22;11046;49.558;8.674;2023-04-05T01:09:47;1.60;67.00
21770;DHT22;11046;49.558;8.674;2023-04-05T01:12:51;1.50;67.00
21770;DHT22;11046;49.558;8.674;2023-04-05T01:15:52;1.40;66.80
21770;DHT22;11046;49.558;8.674;2023-04-05T01:18:54;1.40;67.10
21770;DHT22;11046;49.558;8.674;2023-04-05T01:22:06;1.40;67.30
21770;DHT22;11046;49.558;8.674;2023-04-05T01:35:36;1.30;68.00
21770;DHT22;11046;49.558;8.674;2023-04-05T01:38:39;1.30;68.00
21770;DHT22;11046;49.558;8.674;2023-04-05T01:41:40;1.40;67.90
21770;DHT22;11046;49.558;8.674;2023-04-05T01:44:41;1.30;68.00
21770;DHT22;11046;49.558;8.674;2023-04-05T01:47:41;1.30;68.30
21770;DHT22;11046;49.558;8.674;2023-04-05T01:50:42;1.30;68.40
21770;DHT22;11046;49.558;8.674;2023-04-05T01:53:43;1.30;68.20
21770;DHT22;11046;49.558;8.674;2023-04-05T01:56:43;1.40;68.20
21770;DHT22;11046;49.558;8.674;2023-04-05T01:59:45;1.50;68.00
21770;DHT22;11046;49.558;8.674;2023-04-05T02:02:46;1.40;68.00
21770;DHT22;11046;49.558;8.674;2023-04-05T02:05:47;1.40;68.30
21770;DHT22;11046;49.558;8.674;2023-04-05T02:08:47;1.30;68.40
21770;DHT22;11046;49.558;8.674;2023-04-05T02:11:50;1.30;68.50
21770;DHT22;11046;49.558;8.674;2023-04-05T02:14:51;1.30;68.60
21770;DHT22;11046;49.558;8.674;2023-04-05T02:17:52;1.20;68.70
21770;DHT22;11046;49.558;8.674;2023-04-05T02:21:00;1.10;69.10
21770;DHT22;11046;49.558;8.674;2023-04-05T02:24:00;1.10;69.50
21770;DHT22;11046;49.558;8.674;2023-04-05T02:27:01;1.10;69.40
21770;DHT22;11046;49.558;8.674;2023-04-05T02:30:01;1.10;69.40
21770;DHT22;11046;49.558;8.674;2023-04-05T02:33:02;1.10;69.30
21770;DHT22;11046;49.558;8.674;2023-04-05T02:36:04;1.00;69.50
21770;DHT22;11046;49.558;8.674;2023-04-05T02:39:06;1.00;69.70
21770;DHT22;11046;49.558;8.674;2023-04-05T02:42:06;1.00;69.70
21770;DHT22;11046;49.558;8.674;2023-04-05T02:45:07;1.00;69.60
21770;DHT22;11046;49.558;8.674;2023-04-05T02:48:09;1.00;69.70
21770;DHT22;11046;49.558;8.674;2023-04-05T02:51:09;1.00;69.70
21770;DHT22;11046;49.558;8.674;2023-04-05T02:54:10;0.80;69.90
21770;DHT22;11046;49.558;8.674;2023-04-05T02:57:12;0.80;70.30
21770;DHT22;11046;49.558;8.674;2023-04-05T03:00:23;0.70;70.40
21770;DHT22;11046;49.558;8.674;2023-04-05T03:03:24;0.60;70.70
21770;DHT22;11046;49.558;8.674;2023-04-05T03:06:26;0.50;71.00
21770;DHT22;11046;49.558;8.674;2023-04-05T03:09:28;0.50;71.20
21770;DHT22;11046;49.558;8.674;2023-04-05T03:12:37;0.50;71.10
21770;DHT22;11046;49.558;8.674;2023-04-05T03:15:40;0.60;71.10
21770;DHT22;11046;49.558;8.674;2023-04-05T03:18:46;0.60;71.10
21770;DHT22;11046;49.558;8.674;2023-04-05T03:21:47;0.60;71.00
21770;DHT22;11046;49.558;8.674;2023-04-05T03:24:59;0.60;71.10
21770;DHT22;11046;49.558;8.674;2023-04-05T03:28:04;0.70;71.10
21770;DHT22;11046;49.558;8.674;2023-04-05T03:31:06;0.60;71.00
21770;DHT22;11046;49.558;8.674;2023-04-05T03:34:07;0.60;71.10
21770;DHT22;11046;49.558;8.674;2023-04-05T03:37:15;0.60;71.10
21770;DHT22;11046;49.558;8.674;2023-04-05T03:40:25;0.60;71.10
21770;DHT22;11046;49.558;8.674;2023-04-05T03:43:27;0.60;70.90
21770;DHT22;11046;49.558;8.674;2023-04-05T03:46:29;0.60;71.70
21770;DHT22;11046;49.558;8.674;2023-04-05T03:49:30;0.60;70.90
21770;DHT22;11046;49.558;8.674;2023-04-05T03:52:31;0.50;71.00
21770;DHT22;11046;49.558;8.674;2023-04-05T03:55:32;0.40;71.20
21770;DHT22;11046;49.558;8.674;2023-04-05T03:58:37;0.40;71.40
21770;DHT22;11046;49.558;8.674;2023-04-05T04:01:39;0.30;71.70
21770;DHT22;11046;49.558;8.674;2023-04-05T04:04:40;0.30;71.90
21770;DHT22;11046;49.558;8.674;2023-04-05T04:07:42;0.30;71.90
21770;DHT22;11046;49.558;8.674;2023-04-05T04:10:43;0.20;72.40
21770;DHT22;11046;49.558;8.674;2023-04-05T04:13:52;0.10;72.60
21770;DHT22;11046;49.558;8.674;2023-04-05T04:17:25;0.10;72.60
21770;DHT22;11046;49.558;8.674;2023-04-05T04:20:47;0.10;72.90
21770;DHT22;11046;49.558;8.674;2023-04-05T04:24:09;0.20;72.80
21770;DHT22;11046;49.558;8.674;2023-04-05T04:27:21;0.20;72.90
21770;DHT22;11046;49.558;8.674;2023-04-05T04:30:43;0.20;72.90
21770;DHT22;11046;49.558;8.674;2023-04-05T04:33:59;0.20;72.80
21770;DHT22;11046;49.558;8.674;2023-04-05T04:37:18;0.20;72.80
21770;DHT22;11046;49.558;8.674;2023-04-05T04:40:44;0.10;72.90
21770;DHT22;11046;49.558;8.674;2023-04-05T04:44:25;0.20;73.20
21770;DHT22;11046;49.558;8.674;2023-04-05T04:47:48;0.20;73.10
21770;DHT22;11046;49.558;8.674;2023-04-05T04:50:52;0.20;73.20
21770;DHT22;11046;49.558;8.674;2023-04-05T04:53:54;0.10;73.40
21770;DHT22;11046;49.558;8.674;2023-04-05T04:56:55;0.10;74.10
21770;DHT22;11046;49.558;8.674;2023-04-05T04:59:56;0.10;73.80
21770;DHT22;11046;49.558;8.674;2023-04-05T05:02:57;0.10;73.80
21770;DHT22;11046;49.558;8.674;2023-04-05T05:05:57;0.20;73.80
21770;DHT22;11046;49.558;8.674;2023-04-05T05:09:03;0.20;73.70
21770;DHT22;11046;49.558;8.674;2023-04-05T05:12:08;0.20;73.80
21770;DHT22;11046;49.558;8.674;2023-04-05T05:15:08;0.10;73.80
21770;DHT22;11046;49.558;8.674;2023-04-05T05:18:09;0.20;73.80
21770;DHT22;11046;49.558;8.674;2023-04-05T05:21:11;0.20;73.70
21770;DHT22;11046;49.558;8.674;2023-04-05T05:24:12;0.30;73.70
21770;DHT22;11046;49.558;8.674;2023-04-05T05:27:13;0.20;73.70
21770;DHT22;11046;49.558;8.674;2023-04-05T05:30:14;0.30;73.60
21770;DHT22;11046;49.558;8.674;2023-04-05T05:33:15;0.30;73.60
21770;DHT22;11046;49.558;8.674;2023-04-05T05:36:15;0.30;73.40
21770;DHT22;11046;49.558;8.674;2023-04-05T05:39:16;0.20;73.40
21770;DHT22;11046;49.558;8.674;2023-04-05T05:42:17;0.20;73.70
21770;DHT22;11046;49.558;8.674;2023-04-05T05:45:18;0.20;74.00
21770;DHT22;11046;49.558;8.674;2023-04-05T05:48:19;0.10;74.10
21770;DHT22;11046;49.558;8.674;2023-04-05T05:51:19;0.10;74.30
21770;DHT22;11046;49.558;8.674;2023-04-05T05:54:21;0.10;74.60
21770;DHT22;11046;49.558;8.674;2023-04-05T05:57:21;0.10;74.90
21770;DHT22;11046;49.558;8.674;2023-04-05T06:00:22;0.10;74.80
21770;DHT22;11046;49.558;8.674;2023-04-05T06:03:23;0.20;75.00
21770;DHT22;11046;49.558;8.674;2023-04-05T06:06:25;0.20;75.10
21770;DHT22;11046;49.558;8.674;2023-04-05T06:09:26;0.40;74.90
21770;DHT22;11046;49.558;8.674;2023-04-05T06:12:28;0.50;74.70
21770;DHT22;11046;49.558;8.674;2023-04-05T06:15:29;0.60;74.60
21770;DHT22;11046;49.558;8.674;2023-04-05T06:18:31;0.60;74.60
21770;DHT22;11046;49.558;8.674;2023-04-05T06:21:32;0.50;74.80
21770;DHT22;11046;49.558;8.674;2023-04-05T06:24:33;0.60;75.00
21770;DHT22;11046;49.558;8.674;2023-04-05T06:27:34;0.60;74.90
21770;DHT22;11046;49.558;8.674;2023-04-05T06:30:35;0.60;75.20
21770;DHT22;11046;49.558;8.674;2023-04-05T06:33:35;0.60;75.50
21770;DHT22;11046;49.558;8.674;2023-04-05T06:36:36;0.90;76.10
21770;DHT22;11046;49.558;8.674;2023-04-05T06:39:37;1.30;76.20
21770;DHT22;11046;49.558;8.674;2023-04-05T06:42:37;1.60;76.20
21770;DHT22;11046;49.558;8.674;2023-04-05T06:45:39;2.00;76.30
21770;DHT22;11046;49.558;8.674;2023-04-05T06:48:40;2.30;76.30
21770;DHT22;11046;49.558;8.674;2023-04-05T06:51:43;2.70;76.20
21770;DHT22;11046;49.558;8.674;2023-04-05T06:54:44;3.10;76.00
21770;DHT22;11046;49.558;8.674;2023-04-05T06:57:44;3.30;75.20
21770;DHT22;11046;49.558;8.674;2023-04-05T07:00:45;3.50;75.20
21770;DHT22;11046;49.558;8.674;2023-04-05T07:03:46;3.80;75.40
21770;DHT22;11046;49.558;8.674;2023-04-05T07:06:47;4.20;75.70
21770;DHT22;11046;49.558;8.674;2023-04-05T07:09:47;4.50;75.70
21770;DHT22;11046;49.558;8.674;2023-04-05T07:12:48;4.80;75.70
21770;DHT22;11046;49.558;8.674;2023-04-05T07:15:49;5.20;75.60
21770;DHT22;11046;49.558;8.674;2023-04-05T07:18:50;5.60;75.20
21770;DHT22;11046;49.558;8.674;2023-04-05T07:21:51;6.00;75.00
21770;DHT22;11046;49.558;8.674;2023-04-05T07:24:52;6.30;74.60
21770;DHT22;11046;49.558;8.674;2023-04-05T07:27:54;6.60;73.80
21770;DHT22;11046;49.558;8.674;2023-04-05T07:30:56;6.80;73.00
21770;DHT22;11046;49.558;8.674;2023-04-05T07:33:58;6.80;72.40
21770;DHT22;11046;49.558;8.674;2023-04-05T07:36:59;7.00;72.20
21770;DHT22;11046;49.558;8.674;2023-04-05T07:40:00;7.10;71.70
21770;DHT22;11046;49.558;8.674;2023-04-05T07:43:00;7.20;71.10
21770;DHT22;11046;49.558;8.674;2023-04-05T07:46:02;7.40;70.50
21770;DHT22;11046;49.558;8.674;2023-04-05T07:49:03;7.70;69.70
21770;DHT22;11046;49.558;8.674;2023-04-05T07:52:04;8.00;68.40
21770;DHT22;11046;49.558;8.674;2023-04-05T07:55:07;8.40;67.80
21770;DHT22;11046;49.558;8.674;2023-04-05T07:58:08;8.60;67.10
21770;DHT22;11046;49.558;8.674;2023-04-05T08:01:10;8.70;66.30
21770;DHT22;11046;49.558;8.674;2023-04-05T08:04:11;9.10;65.70
21770;DHT22;11046;49.558;8.674;2023-04-05T08:07:11;9.40;64.90
21770;DHT22;11046;49.558;8.674;2023-04-05T08:10:12;9.80;64.00
21770;DHT22;11046;49.558;8.674;2023-04-05T08:13:13;10.10;62.70
21770;DHT22;11046;49.558;8.674;2023-04-05T08:16:13;10.30;61.80
21770;DHT22;11046;49.558;8.674;2023-04-05T08:19:14;10.40;60.80
21770;DHT22;11046;49.558;8.674;2023-04-05T08:22:15;10.50;60.20
21770;DHT22;11046;49.558;8.674;2023-04-05T08:25:17;10.70;59.70
21770;DHT22;11046;49.558;8.674;2023-04-05T08:28:18;11.10;59.60
21770;DHT22;11046;49.558;8.674;2023-04-05T08:31:21;11.50;58.70
21770;DHT22;11046;49.558;8.674;2023-04-05T08:34:22;11.80;58.20
21770;DHT22;11046;49.558;8.674;2023-04-05T08:37:23;12.30;57.70
21770;DHT22;11046;49.558;8.674;2023-04-05T08:40:44;12.40;57.10
21770;DHT22;11046;49.558;8.674;2023-04-05T08:43:55;12.60;56.20
21770;DHT22;11046;49.558;8.674;2023-04-05T08:46:59;12.70;56.10
21770;DHT22;11046;49.558;8.674;2023-04-05T08:50:00;12.90;55.90
21770;DHT22;11046;49.558;8.674;2023-04-05T08:53:01;12.90;55.60
21770;DHT22;11046;49.558;8.674;2023-04-05T08:56:02;12.80;55.20
21770;DHT22;11046;49.558;8.674;2023-04-05T08:59:08;12.80;55.20
21770;DHT22;11046;49.558;8.674;2023-04-05T09:02:18;13.20;54.50
21770;DHT22;11046;49.558;8.674;2023-04-05T09:05:19;13.50;53.30
21770;DHT22;11046;49.558;8.674;2023-04-05T09:08:20;13.70;53.10
21770;DHT22;11046;49.558;8.674;2023-04-05T09:11:21;14.00;52.50
21770;DHT22;11046;49.558;8.674;2023-04-05T09:14:23;14.10;51.80
21770;DHT22;11046;49.558;8.674;2023-04-05T09:17:23;14.00;51.80
21770;DHT22;11046;49.558;8.674;2023-04-05T09:20:24;14.00;51.40
21770;DHT22;11046;49.558;8.674;2023-04-05T09:23:25;13.70;50.60
21770;DHT22;11046;49.558;8.674;2023-04-05T09:26:27;13.60;50.70
21770;DHT22;11046;49.558;8.674;2023-04-05T09:29:32;13.30;50.80
21770;DHT22;11046;49.558;8.674;2023-04-05T09:32:35;13.30;51.30
21770;DHT22;11046;49.558;8.674;2023-04-05T09:35:37;13.50;51.10
21770;DHT22;11046;49.558;8.674;2023-04-05T09:38:42;13.60;51.00
21770;DHT22;11046;49.558;8.674;2023-04-05T09:42:12;13.80;50.40
21770;DHT22;11046;49.558;8.674;2023-04-05T09:45:16;14.00;50.00
21770;DHT22;11046;49.558;8.674;2023-04-05T09:48:45;14.10;50.00
21770;DHT22;11046;49.558;8.674;2023-04-05T09:51:46;14.00;49.20
21770;DHT22;11046;49.558;8.674;2023-04-05T09:54:47;14.00;49.60
21770;DHT22;11046;49.558;8.674;2023-04-05T09:57:49;13.80;49.20
21770;DHT22;11046;49.558;8.674;2023-04-05T10:00:50;13.70;49.30
21770;DHT22;11046;49.558;8.674;2023-04-05T10:03:52;13.60;48.20
21770;DHT22;11046;49.558;8.674;2023-04-05T10:06:53;13.10;48.70
21770;DHT22;11046;49.558;8.674;2023-04-05T10:09:55;12.90;49.20
21770;DHT22;11046;49.558;8.674;2023-04-05T10:12:56;13.10;49.10
21770;DHT22;11046;49.558;8.674;2023-04-05T10:16:01;13.30;49.20
21770;DHT22;11046;49.558;8.674;2023-04-05T10:19:09;13.30;48.70
21770;DHT22;11046;49.558;8.674;2023-04-05T10:22:20;13.50;48.50
21770;DHT22;11046;49.558;8.674;2023-04-05T10:34:56;14.00;48.30
21770;DHT22;11046;49.558;8.674;2023-04-05T10:38:19;13.80;48.00
21770;DHT22;11046;49.558;8.674;2023-04-05T10:41:21;13.70;47.60
21770;DHT22;11046;49.558;8.674;2023-04-05T10:44:22;13.70;47.80
21770;DHT22;11046;49.558;8.674;2023-04-05T10:47:26;13.80;47.90
21770;DHT22;11046;49.558;8.674;2023-04-05T10:50:27;14.00;47.70
21770;DHT22;11046;49.558;8.674;2023-04-05T10:53:30;14.00;47.70
21770;DHT22;11046;49.558;8.674;2023-04-05T10:56:31;14.20;47.20
21770;DHT22;11046;49.558;8.674;2023-04-05T10:59:33;14.30;47.10
21770;DHT22;11046;49.558;8.674;2023-04-05T11:02:35;14.20;46.90
21770;DHT22;11046;49.558;8.674;2023-04-05T11:05:36;14.20;47.20
21770;DHT22;11046;49.558;8.674;2023-04-05T11:08:40;14.20;47.20
21770;DHT22;11046;49.558;8.674;2023-04-05T11:11:43;14.40;46.90
21770;DHT22;11046;49.558;8.674;2023-04-05T11:14:45;14.50;46.60
21770;DHT22;11046;49.558;8.674;2023-04-05T11:18:04;14.40;46.50
21770;DHT22;11046;49.558;8.674;2023-04-05T11:21:06;14.70;46.40
21770;DHT22;11046;49.558;8.674;2023-04-05T11:24:08;14.40;45.40
21770;DHT22;11046;49.558;8.674;2023-04-05T11:27:11;14.10;45.90
21770;DHT22;11046;49.558;8.674;2023-04-05T11:30:12;14.30;46.10
21770;DHT22;11046;49.558;8.674;2023-04-05T11:36:47;14.40;45.80
21770;DHT22;11046;49.558;8.674;2023-04-05T11:39:47;14.60;46.40
21770;DHT22;11046;49.558;8.674;2023-04-05T11:42:58;14.80;46.00
21770;DHT22;11046;49.558;8.674;2023-04-05T11:46:01;15.00;45.50
21770;DHT22;11046;49.558;8.674;2023-04-05T11:49:03;15.00;45.50
21770;DHT22;11046;49.558;8.674;2023-04-05T11:52:18;15.00;45.40
21770;DHT22;11046;49.558;8.674;2023-04-05T11:55:25;14.90;44.80
21770;DHT22;11046;49.558;8.674;2023-04-05T11:58:26;14.70;44.90
21770;DHT22;11046;49.558;8.674;2023-04-05T12:01:27;14.70;45.60
21770;DHT22;11046;49.558;8.674;2023-04-05T12:04:28;14.80;45.20
21770;DHT22;11046;49.558;8.674;2023-04-05T12:07:29;14.60;45.20
21770;DHT22;11046;49.558;8.674;2023-04-05T12:10:32;14.60;45.50
21770;DHT22;11046;49.558;8.674;2023-04-05T12:13:33;14.80;45.40
21770;DHT22;11046;49.558;8.674;2023-04-05T12:16:34;14.80;44.90
21770;DHT22;11046;49.558;8.674;2023-04-05T12:19:35;14.50;44.60
21770;DHT22;11046;49.558;8.674;2023-04-05T12:22:37;14.30;45.00
21770;DHT22;11046;49.558;8.674;2023-04-05T12:25:38;14.30;44.80
21770;DHT22;11046;49.558;8.674;2023-04-05T12:32:00;14.20;44.40
21770;DHT22;11046;49.558;8.674;2023-04-05T12:35:05;14.00;44.50
21770;DHT22;11046;49.558;8.674;2023-04-05T12:38:06;13.80;44.20
21770;DHT22;11046;49.558;8.674;2023-04-05T12:41:07;13.70;44.40
21770;DHT22;11046;49.558;8.674;2023-04-05T12:44:14;13.50;44.50
21770;DHT22;11046;49.558;8.674;2023-04-05T12:47:15;13.50;44.50
21770;DHT22;11046;49.558;8.674;2023-04-05T12:50:18;13.30;43.80
21770;DHT22;11046;49.558;8.674;2023-04-05T12:53:21;13.20;44.10
21770;DHT22;11046;49.558;8.674;2023-04-05T12:56:23;13.50;44.10
21770;DHT22;11046;49.558;8.674;2023-04-05T12:59:23;13.70;43.80
21770;DHT22;11046;49.558;8.674;2023-04-05T13:02:24;13.60;43.50
21770;DHT22;11046;49.558;8.674;2023-04-05T13:05:28;13.50;43.90
21770;DHT22;11046;49.558;8.674;2023-04-05T13:08:29;13.70;44.40
21770;DHT22;11046;49.558;8.674;2023-04-05T13:11:29;13.80;44.00
21770;DHT22;11046;49.558;8.674;2023-04-05T13:14:30;13.60;43.50
21770;DHT22;11046;49.558;8.674;2023-04-05T13:17:31;13.60;43.70
21770;DHT22;11046;49.558;8.674;2023-04-05T13:20:31;13.60;43.80
21770;DHT22;11046;49.558;8.674;2023-04-05T13:23:33;13.80;44.30
21770;DHT22;11046;49.558;8.674;2023-04-05T13:26:34;14.00;44.00
21770;DHT22;11046;49.558;8.674;2023-04-05T13:29:34;13.90;44.00
21770;DHT22;11046;49.558;8.674;2023-04-05T13:32:35;13.90;45.00
21770;DHT22;11046;49.558;8.674;2023-04-05T13:35:36;13.90;44.20
21770;DHT22;11046;49.558;8.674;2023-04-05T13:38:36;13.70;44.50
21770;DHT22;11046;49.558;8.674;2023-04-05T13:41:37;13.70;45.00
21770;DHT22;11046;49.558;8.674;2023-04-05T13:44:38;13.70;45.40
21770;DHT22;11046;49.558;8.674;2023-04-05T13:47:38;13.60;45.00
21770;DHT22;11046;49.558;8.674;2023-04-05T13:50:39;13.60;45.40
21770;DHT22;11046;49.558;8.674;2023-04-05T13:53:40;13.90;45.70
21770;DHT22;11046;49.558;8.674;2023-04-05T13:56:40;14.10;44.50
21770;DHT22;11046;49.558;8.674;2023-04-05T13:59:41;14.10;44.70
21770;DHT22;11046;49.558;8.674;2023-04-05T14:02:41;14.40;44.90
21770;DHT22;11046;49.558;8.674;2023-04-05T14:05:43;14.70;44.00
21770;DHT22;11046;49.558;8.674;2023-04-05T14:08:43;14.90;43.60
21770;DHT22;11046;49.558;8.674;2023-04-05T14:11:44;15.40;43.00
21770;DHT22;11046;49.558;8.674;2023-04-05T14:14:44;15.70;42.20
21770;DHT22;11046;49.558;8.674;2023-04-05T14:17:45;15.80;41.60
21770;DHT22;11046;49.558;8.674;2023-04-05T14:20:46;16.00;40.50
21770;DHT22;11046;49.558;8.674;2023-04-05T14:23:47;15.80;40.60
21770;DHT22;11046;49.558;8.674;2023-04-05T14:26:49;15.70;40.90
21770;DHT22;11046;49.558;8.674;2023-04-05T14:29:50;15.50;40.90
21770;DHT22;11046;49.558;8.674;2023-04-05T14:32:51;15.20;40.80
21770;DHT22;11046;49.558;8.674;2023-04-05T14:35:52;14.80;40.80
21770;DHT22;11046;49.558;8.674;2023-04-05T14:38:53;14.40;41.00
21770;DHT22;11046;49.558;8.674;2023-04-05T14:41:54;14.00;40.70
21770;DHT22;11046;49.558;8.674;2023-04-05T14:44:55;13.50;41.00
21770;DHT22;11046;49.558;8.674;2023-04-05T14:47:56;13.40;41.30
21770;DHT22;11046;49.558;8.674;2023-04-05T14:50:57;13.60;41.50
21770;DHT22;11046;49.558;8.674;2023-04-05T14:53:58;13.60;41.70
21770;DHT22;11046;49.558;8.674;2023-04-05T14:56:58;13.60;41.30
21770;DHT22;11046;49.558;8.674;2023-04-05T14:59:59;13.30;41.30
21770;DHT22;11046;49.558;8.674;2023-04-05T15:03:00;13.20;41.40
21770;DHT22;11046;49.558;8.674;2023-04-05T15:06:00;13.10;41.60
21770;DHT22;11046;49.558;8.674;2023-04-05T15:09:02;12.90;41.40
21770;DHT22;11046;49.558;8.674;2023-04-05T15:12:03;12.90;41.60
21770;DHT22;11046;49.558;8.674;2023-04-05T15:15:04;12.70;41.60
21770;DHT22;11046;49.558;8.674;2023-04-05T15:18:05;12.70;41.60
21770;DHT22;11046;49.558;8.674;2023-04-05T15:21:07;12.90;42.10
21770;DHT22;11046;49.558;8.674;2023-04-05T15:24:08;12.80;41.20
21770;DHT22;11046;49.558;8.674;2023-04-05T15:27:09;12.70;40.90
21770;DHT22;11046;49.558;8.674;2023-04-05T15:30:10;12.60;40.80
21770;DHT22;11046;49.558;8.674;2023-04-05T15:33:10;12.40;40.70
21770;DHT22;11046;49.558;8.674;2023-04-05T15:36:11;12.30;40.90
21770;DHT22;11046;49.558;8.674;2023-04-05T15:39:11;12.30;40.90
21770;DHT22;11046;49.558;8.674;2023-04-05T15:42:13;12.20;40.90
21770;DHT22;11046;49.558;8.674;2023-04-05T15:45:15;12.00;40.80
21770;DHT22;11046;49.558;8.674;2023-04-05T15:48:15;12.10;40.80
21770;DHT22;11046;49.558;8.674;2023-04-05T15:51:16;12.00;40.50
21770;DHT22;11046;49.558;8.674;2023-04-05T15:54:17;12.00;40.50
21770;DHT22;11046;49.558;8.674;2023-04-05T15:57:20;11.90;40.40
21770;DHT22;11046;49.558;8.674;2023-04-05T16:00:21;11.70;40.50
21770;DHT22;11046;49.558;8.674;2023-04-05T16:03:22;11.70;40.70
21770;DHT22;11046;49.558;8.674;2023-04-05T16:06:22;11.70;40.80
21770;DHT22;11046;49.558;8.674;2023-04-05T16:09:27;11.70;41.10
21770;DHT22;11046;49.558;8.674;2023-04-05T16:12:27;11.60;41.20
21770;DHT22;11046;49.558;8.674;2023-04-05T16:15:28;11.60;41.20
21770;DHT22;11046;49.558;8.674;2023-04-05T16:18:29;11.60;41.10
21770;DHT22;11046;49.558;8.674;2023-04-05T16:21:31;11.50;41.10
21770;DHT22;11046;49.558;8.674;2023-04-05T16:24:32;11.40;41.10
21770;DHT22;11046;49.558;8.674;2023-04-05T16:27:32;11.30;41.40
21770;DHT22;11046;49.558;8.674;2023-04-05T16:30:33;11.30;41.40
21770;DHT22;11046;49.558;8.674;2023-04-05T16:33:33;11.10;41.30
21770;DHT22;11046;49.558;8.674;2023-04-05T16:36:34;11.00;41.50
21770;DHT22;11046;49.558;8.674;2023-04-05T16:39:34;10.80;41.60
21770;DHT22;11046;49.558;8.674;2023-04-05T16:42:35;10.70;41.90
21770;DHT22;11046;49.558;8.674;2023-04-05T16:45:36;10.60;42.00
21770;DHT22;11046;49.558;8.674;2023-04-05T16:48:37;10.70;41.90
21770;DHT22;11046;49.558;8.674;2023-04-05T16:51:38;10.70;41.80
21770;DHT22;11046;49.558;8.674;2023-04-05T16:54:39;10.60;41.90
21770;DHT22;11046;49.558;8.674;2023-04-05T16:57:39;10.60;41.90
21770;DHT22;11046;49.558;8.674;2023-04-05T17:00:40;10.50;41.90
21770;DHT22;11046;49.558;8.674;2023-04-05T17:03:41;10.40;41.90
21770;DHT22;11046;49.558;8.674;2023-04-05T17:06:46;10.50;42.00
21770;DHT22;11046;49.558;8.674;2023-04-05T17:09:49;10.40;41.80
21770;DHT22;11046;49.558;8.674;2023-04-05T17:12:50;10.30;41.90
21770;DHT22;11046;49.558;8.674;2023-04-05T17:15:52;10.20;41.90
21770;DHT22;11046;49.558;8.674;2023-04-05T17:18:53;10.10;42.10
21770;DHT22;11046;49.558;8.674;2023-04-05T17:21:53;10.00;42.30
21770;DHT22;11046;49.558;8.674;2023-04-05T17:24:54;10.00;42.40
21770;DHT22;11046;49.558;8.674;2023-04-05T17:27:56;10.10;42.50
21770;DHT22;11046;49.558;8.674;2023-04-05T17:30:57;10.00;42.30
21770;DHT22;11046;49.558;8.674;2023-04-05T17:33:58;10.00;42.40
21770;DHT22;11046;49.558;8.674;2023-04-05T17:37:00;9.90;42.40
21770;DHT22;11046;49.558;8.674;2023-04-05T17:40:05;9.80;42.50
21770;DHT22;11046;49.558;8.674;2023-04-05T17:43:07;9.70;42.70
21770;DHT22;11046;49.558;8.674;2023-04-05T17:46:11;9.60;42.80
21770;DHT22;11046;49.558;8.674;2023-04-05T17:49:14;9.40;43.00
21770;DHT22;11046;49.558;8.674;2023-04-05T17:52:16;9.30;43.10
21770;DHT22;11046;49.558;8.674;2023-04-05T17:55:16;9.30;43.20
21770;DHT22;11046;49.558;8.674;2023-04-05T17:58:17;9.20;43.40
21770;DHT22;11046;49.558;8.674;2023-04-05T18:01:19;9.10;43.60
21770;DHT22;11046;49.558;8.674;2023-04-05T18:04:20;9.00;43.80
21770;DHT22;11046;49.558;8.674;2023-04-05T18:07:21;8.90;44.20
21770;DHT22;11046;49.558;8.674;2023-04-05T18:10:22;8.80;44.60
21770;DHT22;11046;49.558;8.674;2023-04-05T18:13:25;8.70;45.10
21770;DHT22;11046;49.558;8.674;2023-04-05T18:16:27;8.50;45.70
21770;DHT22;11046;49.558;8.674;2023-04-05T18:19:29;8.40;46.00
21770;DHT22;11046;49.558;8.674;2023-04-05T18:22:31;8.20;46.20
21770;DHT22;11046;49.558;8.674;2023-04-05T18:25:34;8.20;46.50
21770;DHT22;11046;49.558;8.674;2023-04-05T18:28:35;8.10;46.90
21770;DHT22;11046;49.558;8.674;2023-04-05T18:31:36;8.00;47.10
21770;DHT22;11046;49.558;8.674;2023-04-05T18:34:36;7.80;47.20
21770;DHT22;11046;49.558;8.674;2023-04-05T18:37:38;7.70;47.40
21770;DHT22;11046;49.558;8.674;2023-04-05T18:40:39;7.60;47.60
21770;DHT22;11046;49.558;8.674;2023-04-05T18:43:41;7.60;47.90
21770;DHT22;11046;49.558;8.674;2023-04-05T18:46:41;7.50;48.00
21770;DHT22;11046;49.558;8.674;2023-04-05T18:49:43;7.40;48.20
21770;DHT22;11046;49.558;8.674;2023-04-05T18:52:45;7.30;48.40
21770;DHT22;11046;49.558;8.674;2023-04-05T18:55:50;7.20;48.60
21770;DHT22;11046;49.558;8.674;2023-04-05T18:58:51;7.10;48.90
21770;DHT22;11046;49.558;8.674;2023-04-05T19:01:52;7.00;49.10
21770;DHT22;11046;49.558;8.674;2023-04-05T19:04:54;6.90;49.30
21770;DHT22;11046;49.558;8.674;2023-04-05T19:07:55;6.80;49.50
21770;DHT22;11046;49.558;8.674;2023-04-05T19:10:56;6.70;49.70
21770;DHT22;11046;49.558;8.674;2023-04-05T19:13:57;6.60;50.00
21770;DHT22;11046;49.558;8.674;2023-04-05T19:17:00;6.50;50.20
21770;DHT22;11046;49.558;8.674;2023-04-05T19:20:02;6.40;50.60
21770;DHT22;11046;49.558;8.674;2023-04-05T19:23:03;6.30;51.00
21770;DHT22;11046;49.558;8.674;2023-04-05T19:26:05;6.10;51.20
21770;DHT22;11046;49.558;8.674;2023-04-05T19:29:05;6.00;51.50
21770;DHT22;11046;49.558;8.674;2023-04-05T19:32:06;5.90;51.80
21770;DHT22;11046;49.558;8.674;2023-04-05T19:35:08;5.80;52.10
21770;DHT22;11046;49.558;8.674;2023-04-05T19:38:09;5.80;52.10
21770;DHT22;11046;49.558;8.674;2023-04-05T19:41:13;5.70;52.20
21770;DHT22;11046;49.558;8.674;2023-04-05T19:47:34;5.60;52.90
21770;DHT22;11046;49.558;8.674;2023-04-05T19:50:47;5.50;53.00
21770;DHT22;11046;49.558;8.674;2023-04-05T19:53:50;5.50;53.50
21770;DHT22;11046;49.558;8.674;2023-04-05T19:56:52;5.40;53.30
21770;DHT22;11046;49.558;8.674;2023-04-05T19:59:53;5.40;54.00